»·PEaware :: N522BB KSMX-KBFL

N522BB :: KSMX-KBFL

FLIGHT INFORMATION

Flight Status: Arrived
Operator: Privately registered:
United States
More flights under this callsign
Pilot: Klaus K. (15267)
Aircraft: CESSNA 172 SKYHAWK
(C172)
More flights by this aircraft type
Origin: KSMX Santa Maria Pub/Capt Hancock
United States
Destination: KBFL Meadows
United States
More flights between these airports :: More routes between these airports
Route: KSMX KBFL
File this flight plan on PilotEdge
Remarks:
Altitude:
(Current/Filed)
7,500ft
Speed:
(Current/Filed)
120kts
Departed: 13-Jun-17 03:21 PM
Arrived: 13-Jun-17 04:06 PM
Distance/Time
Traveled:
76nm/0:45
Distance/Time
To Go:
Arrived

Flight Plot

Page will automatically refresh every two minutes.


Map Options




Map Legend


Flown Route
Filed Route
Departure Airport
Arrival Airport
Navaid (VOR, NDB)
Fix

Horizontal Profiles

Position Reports

Time Latitude Longitude Heading Altitude Ground
Speed
13-Jun-17 14:38 34.896568 -120.445959 314 264ft 0kts
13-Jun-17 14:39 34.896568 -120.445959 314 264ft 0kts
13-Jun-17 14:40 34.896568 -120.445959 314 264ft 0kts
13-Jun-17 14:41 34.896568 -120.445959 314 264ft 0kts
13-Jun-17 14:42 34.896568 -120.445959 314 264ft 0kts
13-Jun-17 14:43 34.896568 -120.445959 314 264ft 0kts
13-Jun-17 14:44 34.896568 -120.445959 314 264ft 0kts
13-Jun-17 14:45 34.896568 -120.445959 314 264ft 0kts
13-Jun-17 14:46 34.896568 -120.445959 314 264ft 0kts
13-Jun-17 14:47 34.896568 -120.445959 314 264ft 0kts
13-Jun-17 14:48 34.896568 -120.445959 314 264ft 0kts
13-Jun-17 14:49 34.896568 -120.445959 314 264ft 0kts
13-Jun-17 14:50 34.896568 -120.445959 314 264ft 0kts
13-Jun-17 14:51 34.896568 -120.445959 314 264ft 0kts
13-Jun-17 14:52 34.896568 -120.445959 314 264ft 0kts
13-Jun-17 14:53 34.896568 -120.445959 314 264ft 0kts
13-Jun-17 14:54 34.896568 -120.445959 314 264ft 0kts
13-Jun-17 14:55 34.896568 -120.445959 314 264ft 0kts
13-Jun-17 14:56 34.896568 -120.445959 314 264ft 0kts
13-Jun-17 14:57 34.896568 -120.445959 314 264ft 0kts
13-Jun-17 14:58 34.896568 -120.445959 314 264ft 0kts
13-Jun-17 15:01 34.896567 -120.445958 314 264ft 0kts
13-Jun-17 15:02 34.896568 -120.445958 314 264ft 0kts
13-Jun-17 15:03 34.896569 -120.445960 314 264ft 0kts
13-Jun-17 15:04 34.896570 -120.445962 314 264ft 0kts
13-Jun-17 15:05 34.896572 -120.445963 314 264ft 0kts
13-Jun-17 15:06 34.896573 -120.445965 314 264ft 0kts
13-Jun-17 15:07 34.896575 -120.445967 314 264ft 0kts
13-Jun-17 15:08 34.896576 -120.445969 314 264ft 0kts
13-Jun-17 15:09 34.896577 -120.445971 314 264ft 0kts
13-Jun-17 15:10 34.896579 -120.445973 314 264ft 0kts
13-Jun-17 15:11 34.896580 -120.445974 314 264ft 0kts
13-Jun-17 15:12 34.896582 -120.445976 314 264ft 0kts
13-Jun-17 15:13 34.895456 -120.445133 131 264ft 10kts
13-Jun-17 15:14 34.895205 -120.444922 161 264ft 0kts
13-Jun-17 15:15 34.894196 -120.445223 175 264ft 10kts
13-Jun-17 15:16 34.893748 -120.445266 183 264ft 0kts
13-Jun-17 15:17 34.893746 -120.445266 183 264ft 0kts
13-Jun-17 15:18 34.893742 -120.445267 183 264ft 0kts
13-Jun-17 15:19 34.893738 -120.445267 183 264ft 0kts
13-Jun-17 15:20 34.893735 -120.445267 183 264ft 0kts
13-Jun-17 15:21 34.893623 -120.445273 181 264ft 5kts
13-Jun-17 15:22 34.893633 -120.446927 313 297ft 27kts
13-Jun-17 15:23 34.904272 -120.458206 316 1059ft 65kts
13-Jun-17 15:24 34.923587 -120.445687 31 1870ft 111kts
13-Jun-17 15:25 34.946240 -120.419202 34 1907ft 114kts
13-Jun-17 15:26 34.965887 -120.389387 43 2164ft 106kts
13-Jun-17 15:27 34.973053 -120.376247 47 2455ft 102kts
13-Jun-17 15:28 34.987448 -120.350518 50 3296ft 91kts
13-Jun-17 15:29 34.999344 -120.321497 71 3686ft 98kts
13-Jun-17 15:30 35.001905 -120.286561 84 4362ft 103kts
13-Jun-17 15:31 35.009200 -120.255220 49 4859ft 92kts
13-Jun-17 15:32 35.023988 -120.227579 66 5360ft 98kts
13-Jun-17 15:33 35.025677 -120.192846 82 5915ft 107kts
13-Jun-17 15:34 35.027217 -120.156803 79 6426ft 107kts
13-Jun-17 15:35 35.029623 -120.118479 65 6885ft 110kts
13-Jun-17 15:36 35.038793 -120.087169 60 7389ft 91kts
13-Jun-17 15:37 35.052910 -120.053832 48 7524ft 124kts
13-Jun-17 15:38 35.070598 -120.016565 59 7516ft 123kts
13-Jun-17 15:39 35.084841 -119.979801 61 7514ft 117kts
13-Jun-17 15:40 35.098305 -119.944751 61 7517ft 112kts
13-Jun-17 15:41 35.111607 -119.910058 61 7531ft 116kts
13-Jun-17 15:42 35.126345 -119.871543 61 7517ft 126kts
13-Jun-17 15:43 35.140946 -119.833299 61 7522ft 119kts
13-Jun-17 15:44 35.154522 -119.797771 61 7539ft 116kts
13-Jun-17 15:45 35.169189 -119.759341 61 7525ft 123kts
13-Jun-17 15:46 35.182841 -119.723491 61 7552ft 115kts
13-Jun-17 15:47 35.196826 -119.686792 61 7553ft 120kts
13-Jun-17 15:48 35.211115 -119.649190 61 7562ft 123kts
13-Jun-17 15:49 35.226006 -119.609993 62 7558ft 126kts
13-Jun-17 15:50 35.240758 -119.571092 61 7567ft 123kts
13-Jun-17 15:51 35.255655 -119.531775 62 7574ft 126kts
13-Jun-17 15:52 35.270602 -119.492261 62 7570ft 126kts
13-Jun-17 15:53 35.284396 -119.455768 62 7563ft 129kts
13-Jun-17 15:54 35.299459 -119.415846 62 7569ft 125kts
13-Jun-17 15:55 35.314207 -119.376734 62 7558ft 122kts
13-Jun-17 15:56 35.327760 -119.340754 62 7558ft 113kts
13-Jun-17 15:57 35.340928 -119.305768 62 7569ft 116kts
13-Jun-17 15:58 35.354297 -119.270176 62 7550ft 125kts
13-Jun-17 15:59 35.367970 -119.233733 62 7564ft 118kts
13-Jun-17 16:00 35.382584 -119.194575 61 6552ft 134kts
13-Jun-17 16:01 35.398222 -119.154283 59 4314ft 130kts
13-Jun-17 16:02 35.414606 -119.116346 55 2188ft 118kts
13-Jun-17 16:03 35.425650 -119.083888 100 1599ft 98kts
13-Jun-17 16:04 35.407051 -119.058951 140 1477ft 95kts
13-Jun-17 16:05 35.397778 -119.037144 50 1249ft 75kts
13-Jun-17 16:06 35.414911 -119.037754 320 969ft 66kts
13-Jun-17 16:07 35.428683 -119.053498 311 570ft 65kts
13-Jun-17 16:08 35.434899 -119.059908 43 510ft 12kts
13-Jun-17 16:09 35.436184 -119.056821 133 510ft 9kts
13-Jun-17 16:10 35.433325 -119.053330 137 510ft 6kts
13-Jun-17 16:11 35.429890 -119.049161 135 510ft 17kts
13-Jun-17 16:12 35.427113 -119.045811 135 510ft 12kts
13-Jun-17 16:13 35.425344 -119.043300 180 510ft 3kts
13-Jun-17 16:14 35.424376 -119.042693 53 510ft 0kts
13-Jun-17 16:15 35.424377 -119.042691 53 510ft 0kts
13-Jun-17 16:16 35.424378 -119.042690 53 510ft 0kts
13-Jun-17 16:17 35.424378 -119.042690 53 510ft 0kts

Navigation Log

Ident Type
1. KSMX Airport
2. KBFL Airport